sensor_id;sensor_type;location;lat;lon;timestamp;P1;durP1;ratioP1;P2;durP2;ratioP2
78181;SDS011;67441;50.116;8.696;2023-06-26T00:00:22;6.90;;;5.78;;
78181;SDS011;67441;50.116;8.696;2023-06-26T00:01:12;7.60;;;6.03;;
78181;SDS011;67441;50.116;8.696;2023-06-26T00:02:04;6.88;;;5.97;;
78181;SDS011;67441;50.116;8.696;2023-06-26T00:02:57;6.93;;;6.03;;
78181;SDS011;67441;50.116;8.696;2023-06-26T00:03:48;9.98;;;6.25;;
78181;SDS011;67441;50.116;8.696;2023-06-26T00:04:41;7.40;;;5.88;;
78181;SDS011;67441;50.116;8.696;2023-06-26T00:05:07;8.02;;;5.88;;
78181;SDS011;67441;50.116;8.696;2023-06-26T00:05:59;9.88;;;6.43;;
78181;SDS011;67441;50.116;8.696;2023-06-26T00:06:50;6.30;;;5.35;;
78181;SDS011;67441;50.116;8.696;2023-06-26T00:07:41;7.20;;;5.95;;
78181;SDS011;67441;50.116;8.696;2023-06-26T00:08:31;7.10;;;5.63;;
78181;SDS011;67441;50.116;8.696;2023-06-26T00:08:57;7.40;;;6.18;;
78181;SDS011;67441;50.116;8.696;2023-06-26T00:09:23;8.77;;;6.32;;
78181;SDS011;67441;50.116;8.696;2023-06-26T00:10:14;6.88;;;5.90;;
78181;SDS011;67441;50.116;8.696;2023-06-26T00:11:04;9.13;;;6.47;;
78181;SDS011;67441;50.116;8.696;2023-06-26T00:11:30;7.00;;;6.03;;
78181;SDS011;67441;50.116;8.696;2023-06-26T00:11:58;6.65;;;5.63;;
78181;SDS011;67441;50.116;8.696;2023-06-26T00:12:24;7.50;;;6.07;;
78181;SDS011;67441;50.116;8.696;2023-06-26T00:13:15;7.63;;;6.00;;
78181;SDS011;67441;50.116;8.696;2023-06-26T00:14:05;9.00;;;5.93;;
78181;SDS011;67441;50.116;8.696;2023-06-26T00:14:31;8.50;;;6.13;;
78181;SDS011;67441;50.116;8.696;2023-06-26T00:14:56;6.07;;;5.47;;
78181;SDS011;67441;50.116;8.696;2023-06-26T00:15:47;7.57;;;6.63;;
78181;SDS011;67441;50.116;8.696;2023-06-26T00:16:37;7.40;;;6.10;;
78181;SDS011;67441;50.116;8.696;2023-06-26T00:17:03;6.90;;;6.07;;
78181;SDS011;67441;50.116;8.696;2023-06-26T00:17:53;8.02;;;6.20;;
78181;SDS011;67441;50.116;8.696;2023-06-26T00:18:19;8.15;;;5.78;;
78181;SDS011;67441;50.116;8.696;2023-06-26T00:19:09;6.55;;;5.85;;
78181;SDS011;67441;50.116;8.696;2023-06-26T00:20:00;7.95;;;6.32;;
78181;SDS011;67441;50.116;8.696;2023-06-26T00:20:30;6.50;;;5.82;;
78181;SDS011;67441;50.116;8.696;2023-06-26T00:20:58;7.40;;;5.95;;
78181;SDS011;67441;50.116;8.696;2023-06-26T00:21:50;7.10;;;6.25;;
78181;SDS011;67441;50.116;8.696;2023-06-26T00:22:15;7.57;;;6.50;;
78181;SDS011;67441;50.116;8.696;2023-06-26T00:22:40;8.07;;;6.68;;
78181;SDS011;67441;50.116;8.696;2023-06-26T00:23:32;6.75;;;6.05;;
78181;SDS011;67441;50.116;8.696;2023-06-26T00:24:01;7.55;;;6.22;;
78181;SDS011;67441;50.116;8.696;2023-06-26T00:24:52;7.05;;;5.80;;
78181;SDS011;67441;50.116;8.696;2023-06-26T00:25:17;6.75;;;6.03;;
78181;SDS011;67441;50.116;8.696;2023-06-26T00:25:43;7.82;;;5.80;;
78181;SDS011;67441;50.116;8.696;2023-06-26T00:26:35;7.78;;;6.45;;
78181;SDS011;67441;50.116;8.696;2023-06-26T00:27:25;6.03;;;5.38;;
78181;SDS011;67441;50.116;8.696;2023-06-26T00:28:16;7.63;;;5.85;;
78181;SDS011;67441;50.116;8.696;2023-06-26T00:29:06;7.35;;;6.28;;
78181;SDS011;67441;50.116;8.696;2023-06-26T00:29:57;7.15;;;5.95;;
78181;SDS011;67441;50.116;8.696;2023-06-26T00:30:22;7.00;;;6.30;;
78181;SDS011;67441;50.116;8.696;2023-06-26T00:31:13;7.57;;;6.22;;
78181;SDS011;67441;50.116;8.696;2023-06-26T00:32:06;8.70;;;6.45;;
78181;SDS011;67441;50.116;8.696;2023-06-26T00:32:31;7.80;;;6.00;;
78181;SDS011;67441;50.116;8.696;2023-06-26T00:33:22;8.48;;;6.07;;
78181;SDS011;67441;50.116;8.696;2023-06-26T00:34:13;7.40;;;6.60;;
78181;SDS011;67441;50.116;8.696;2023-06-26T00:34:39;7.15;;;5.88;;
78181;SDS011;67441;50.116;8.696;2023-06-26T00:35:30;6.53;;;5.82;;
78181;SDS011;67441;50.116;8.696;2023-06-26T00:36:21;9.32;;;6.32;;
78181;SDS011;67441;50.116;8.696;2023-06-26T00:36:48;8.15;;;6.10;;
78181;SDS011;67441;50.116;8.696;2023-06-26T00:37:38;7.43;;;6.25;;
78181;SDS011;67441;50.116;8.696;2023-06-26T00:38:29;7.68;;;6.40;;
78181;SDS011;67441;50.116;8.696;2023-06-26T00:38:54;7.13;;;6.13;;
78181;SDS011;67441;50.116;8.696;2023-06-26T00:39:45;6.60;;;5.88;;
78181;SDS011;67441;50.116;8.696;2023-06-26T00:40:10;7.00;;;5.78;;
78181;SDS011;67441;50.116;8.696;2023-06-26T00:41:01;6.95;;;6.13;;
78181;SDS011;67441;50.116;8.696;2023-06-26T00:41:26;7.20;;;5.82;;
78181;SDS011;67441;50.116;8.696;2023-06-26T00:42:18;7.10;;;6.28;;
78181;SDS011;67441;50.116;8.696;2023-06-26T00:43:09;8.20;;;5.93;;
78181;SDS011;67441;50.116;8.696;2023-06-26T00:43:59;7.85;;;5.78;;
78181;SDS011;67441;50.116;8.696;2023-06-26T00:44:50;6.97;;;6.15;;
78181;SDS011;67441;50.116;8.696;2023-06-26T00:45:40;7.05;;;5.88;;
78181;SDS011;67441;50.116;8.696;2023-06-26T00:46:33;7.35;;;5.95;;
78181;SDS011;67441;50.116;8.696;2023-06-26T00:46:59;7.22;;;6.10;;
78181;SDS011;67441;50.116;8.696;2023-06-26T00:47:50;6.95;;;6.25;;
78181;SDS011;67441;50.116;8.696;2023-06-26T00:48:42;6.68;;;5.93;;
78181;SDS011;67441;50.116;8.696;2023-06-26T00:49:08;7.05;;;5.75;;
78181;SDS011;67441;50.116;8.696;2023-06-26T00:49:59;7.40;;;5.60;;
78181;SDS011;67441;50.116;8.696;2023-06-26T00:50:51;7.93;;;5.85;;
78181;SDS011;67441;50.116;8.696;2023-06-26T00:51:42;7.82;;;6.10;;
78181;SDS011;67441;50.116;8.696;2023-06-26T00:52:08;7.55;;;6.75;;
78181;SDS011;67441;50.116;8.696;2023-06-26T00:52:59;7.65;;;6.25;;
78181;SDS011;67441;50.116;8.696;2023-06-26T00:53:26;9.13;;;6.10;;
78181;SDS011;67441;50.116;8.696;2023-06-26T00:54:16;7.57;;;6.05;;
78181;SDS011;67441;50.116;8.696;2023-06-26T00:54:45;6.63;;;5.93;;
78181;SDS011;67441;50.116;8.696;2023-06-26T00:55:35;8.57;;;6.35;;
78181;SDS011;67441;50.116;8.696;2023-06-26T00:56:27;8.52;;;6.10;;
78181;SDS011;67441;50.116;8.696;2023-06-26T00:56:53;10.07;;;7.13;;
78181;SDS011;67441;50.116;8.696;2023-06-26T00:57:43;7.40;;;6.03;;
78181;SDS011;67441;50.116;8.696;2023-06-26T00:58:10;6.95;;;5.72;;
78181;SDS011;67441;50.116;8.696;2023-06-26T00:59:01;7.45;;;6.18;;
78181;SDS011;67441;50.116;8.696;2023-06-26T00:59:26;7.80;;;6.47;;
78181;SDS011;67441;50.116;8.696;2023-06-26T01:00:17;7.43;;;6.30;;
78181;SDS011;67441;50.116;8.696;2023-06-26T01:01:10;7.13;;;5.88;;
78181;SDS011;67441;50.116;8.696;2023-06-26T01:01:40;6.90;;;6.15;;
78181;SDS011;67441;50.116;8.696;2023-06-26T01:02:32;6.75;;;5.97;;
78181;SDS011;67441;50.116;8.696;2023-06-26T01:02:58;8.57;;;6.15;;
78181;SDS011;67441;50.116;8.696;2023-06-26T01:03:50;6.93;;;5.80;;
78181;SDS011;67441;50.116;8.696;2023-06-26T01:04:18;7.13;;;5.82;;
78181;SDS011;67441;50.116;8.696;2023-06-26T01:05:11;8.57;;;6.22;;
78181;SDS011;67441;50.116;8.696;2023-06-26T01:05:43;8.50;;;6.18;;
78181;SDS011;67441;50.116;8.696;2023-06-26T01:06:11;6.75;;;6.05;;
78181;SDS011;67441;50.116;8.696;2023-06-26T01:06:38;8.13;;;6.63;;
78181;SDS011;67441;50.116;8.696;2023-06-26T01:07:28;6.90;;;5.85;;
78181;SDS011;67441;50.116;8.696;2023-06-26T01:07:54;6.88;;;6.18;;
78181;SDS011;67441;50.116;8.696;2023-06-26T01:08:46;6.90;;;6.20;;
78181;SDS011;67441;50.116;8.696;2023-06-26T01:09:12;7.82;;;6.55;;
78181;SDS011;67441;50.116;8.696;2023-06-26T01:10:03;8.50;;;6.57;;
78181;SDS011;67441;50.116;8.696;2023-06-26T01:10:30;7.80;;;6.10;;
78181;SDS011;67441;50.116;8.696;2023-06-26T01:11:21;6.57;;;5.80;;
78181;SDS011;67441;50.116;8.696;2023-06-26T01:12:12;7.93;;;6.38;;
78181;SDS011;67441;50.116;8.696;2023-06-26T01:13:03;6.90;;;6.15;;
78181;SDS011;67441;50.116;8.696;2023-06-26T01:13:56;8.40;;;6.45;;
78181;SDS011;67441;50.116;8.696;2023-06-26T01:14:24;7.82;;;6.40;;
78181;SDS011;67441;50.116;8.696;2023-06-26T01:15:14;8.45;;;6.45;;
78181;SDS011;67441;50.116;8.696;2023-06-26T01:15:40;7.55;;;6.45;;
78181;SDS011;67441;50.116;8.696;2023-06-26T01:16:30;8.82;;;6.85;;
78181;SDS011;67441;50.116;8.696;2023-06-26T01:16:56;8.35;;;6.60;;
78181;SDS011;67441;50.116;8.696;2023-06-26T01:17:22;7.70;;;6.55;;
78181;SDS011;67441;50.116;8.696;2023-06-26T01:18:14;9.13;;;6.47;;
78181;SDS011;67441;50.116;8.696;2023-06-26T01:18:40;8.60;;;6.43;;
78181;SDS011;67441;50.116;8.696;2023-06-26T01:19:13;7.95;;;6.43;;
78181;SDS011;67441;50.116;8.696;2023-06-26T01:19:49;8.43;;;6.95;;
78181;SDS011;67441;50.116;8.696;2023-06-26T01:20:16;8.60;;;6.85;;
78181;SDS011;67441;50.116;8.696;2023-06-26T01:20:43;8.05;;;6.40;;
78181;SDS011;67441;50.116;8.696;2023-06-26T01:21:09;7.43;;;6.20;;
78181;SDS011;67441;50.116;8.696;2023-06-26T01:21:37;7.70;;;6.75;;
78181;SDS011;67441;50.116;8.696;2023-06-26T01:22:19;7.72;;;6.85;;
78181;SDS011;67441;50.116;8.696;2023-06-26T01:24:17;10.00;;;6.57;;
78181;SDS011;67441;50.116;8.696;2023-06-26T01:25:03;9.45;;;6.30;;
78181;SDS011;67441;50.116;8.696;2023-06-26T01:26:17;9.43;;;6.68;;
78181;SDS011;67441;50.116;8.696;2023-06-26T01:26:45;7.30;;;6.40;;
78181;SDS011;67441;50.116;8.696;2023-06-26T01:27:13;8.52;;;6.57;;
78181;SDS011;67441;50.116;8.696;2023-06-26T01:28:05;7.20;;;6.00;;
78181;SDS011;67441;50.116;8.696;2023-06-26T01:28:33;8.02;;;6.28;;
78181;SDS011;67441;50.116;8.696;2023-06-26T01:28:59;8.15;;;6.50;;
78181;SDS011;67441;50.116;8.696;2023-06-26T01:29:27;7.68;;;5.95;;
78181;SDS011;67441;50.116;8.696;2023-06-26T01:29:56;7.72;;;6.43;;
78181;SDS011;67441;50.116;8.696;2023-06-26T01:30:48;8.93;;;6.97;;
78181;SDS011;67441;50.116;8.696;2023-06-26T01:31:16;8.88;;;6.75;;
78181;SDS011;67441;50.116;8.696;2023-06-26T01:31:42;7.70;;;6.40;;
78181;SDS011;67441;50.116;8.696;2023-06-26T01:32:11;6.57;;;5.93;;
78181;SDS011;67441;50.116;8.696;2023-06-26T01:33:02;6.85;;;6.15;;
78181;SDS011;67441;50.116;8.696;2023-06-26T01:33:29;8.50;;;6.88;;
78181;SDS011;67441;50.116;8.696;2023-06-26T01:33:55;7.72;;;6.35;;
78181;SDS011;67441;50.116;8.696;2023-06-26T01:34:22;7.05;;;6.35;;
78181;SDS011;67441;50.116;8.696;2023-06-26T01:35:13;7.13;;;5.78;;
78181;SDS011;67441;50.116;8.696;2023-06-26T01:35:40;8.45;;;6.70;;
78181;SDS011;67441;50.116;8.696;2023-06-26T01:36:31;7.93;;;6.75;;
78181;SDS011;67441;50.116;8.696;2023-06-26T01:37:22;8.77;;;6.60;;
78181;SDS011;67441;50.116;8.696;2023-06-26T01:38:17;8.77;;;6.63;;
78181;SDS011;67441;50.116;8.696;2023-06-26T01:38:44;7.78;;;6.82;;
78181;SDS011;67441;50.116;8.696;2023-06-26T01:39:34;8.60;;;6.60;;
78181;SDS011;67441;50.116;8.696;2023-06-26T01:40:25;8.18;;;6.60;;
78181;SDS011;67441;50.116;8.696;2023-06-26T01:40:50;9.10;;;7.15;;
78181;SDS011;67441;50.116;8.696;2023-06-26T01:41:41;8.88;;;6.72;;
78181;SDS011;67441;50.116;8.696;2023-06-26T01:42:35;8.95;;;6.13;;
78181;SDS011;67441;50.116;8.696;2023-06-26T01:43:01;8.13;;;6.07;;
78181;SDS011;67441;50.116;8.696;2023-06-26T01:44:10;8.13;;;7.03;;
78181;SDS011;67441;50.116;8.696;2023-06-26T01:44:44;8.15;;;7.35;;
78181;SDS011;67441;50.116;8.696;2023-06-26T01:45:26;7.18;;;6.43;;
78181;SDS011;67441;50.116;8.696;2023-06-26T01:45:54;8.57;;;7.00;;
78181;SDS011;67441;50.116;8.696;2023-06-26T01:46:31;7.82;;;6.63;;
78181;SDS011;67441;50.116;8.696;2023-06-26T01:47:03;7.78;;;6.82;;
78181;SDS011;67441;50.116;8.696;2023-06-26T01:47:29;7.82;;;6.47;;
78181;SDS011;67441;50.116;8.696;2023-06-26T01:47:59;9.98;;;6.93;;
78181;SDS011;67441;50.116;8.696;2023-06-26T01:48:29;8.30;;;7.00;;
78181;SDS011;67441;50.116;8.696;2023-06-26T01:49:02;8.00;;;7.03;;
78181;SDS011;67441;50.116;8.696;2023-06-26T01:50:14;8.23;;;7.28;;
78181;SDS011;67441;50.116;8.696;2023-06-26T01:50:43;7.28;;;6.47;;
78181;SDS011;67441;50.116;8.696;2023-06-26T01:51:09;8.60;;;6.95;;
78181;SDS011;67441;50.116;8.696;2023-06-26T01:52:00;7.97;;;6.70;;
78181;SDS011;67441;50.116;8.696;2023-06-26T01:53:16;7.90;;;6.97;;
78181;SDS011;67441;50.116;8.696;2023-06-26T01:53:45;8.88;;;6.88;;
78181;SDS011;67441;50.116;8.696;2023-06-26T01:54:16;8.60;;;7.20;;
78181;SDS011;67441;50.116;8.696;2023-06-26T01:54:47;7.65;;;6.75;;
78181;SDS011;67441;50.116;8.696;2023-06-26T01:55:28;7.50;;;6.70;;
78181;SDS011;67441;50.116;8.696;2023-06-26T01:56:05;7.97;;;6.55;;
78181;SDS011;67441;50.116;8.696;2023-06-26T01:56:33;7.95;;;6.63;;
78181;SDS011;67441;50.116;8.696;2023-06-26T01:57:00;7.15;;;6.15;;
78181;SDS011;67441;50.116;8.696;2023-06-26T01:57:52;8.75;;;6.85;;
78181;SDS011;67441;50.116;8.696;2023-06-26T01:58:22;8.65;;;7.13;;
78181;SDS011;67441;50.116;8.696;2023-06-26T01:58:50;8.10;;;6.97;;
78181;SDS011;67441;50.116;8.696;2023-06-26T01:59:19;8.75;;;7.80;;
78181;SDS011;67441;50.116;8.696;2023-06-26T01:59:46;8.48;;;6.85;;
78181;SDS011;67441;50.116;8.696;2023-06-26T02:00:39;10.15;;;7.10;;
78181;SDS011;67441;50.116;8.696;2023-06-26T02:01:30;8.18;;;6.90;;
78181;SDS011;67441;50.116;8.696;2023-06-26T02:01:57;8.48;;;6.65;;
78181;SDS011;67441;50.116;8.696;2023-06-26T02:02:49;9.20;;;7.55;;
78181;SDS011;67441;50.116;8.696;2023-06-26T02:03:39;9.45;;;6.78;;
78181;SDS011;67441;50.116;8.696;2023-06-26T02:04:04;8.75;;;7.30;;
78181;SDS011;67441;50.116;8.696;2023-06-26T02:04:55;9.98;;;7.57;;
78181;SDS011;67441;50.116;8.696;2023-06-26T02:05:46;8.50;;;7.28;;
78181;SDS011;67441;50.116;8.696;2023-06-26T02:06:36;10.48;;;7.28;;
78181;SDS011;67441;50.116;8.696;2023-06-26T02:07:02;7.95;;;7.10;;
78181;SDS011;67441;50.116;8.696;2023-06-26T02:07:27;8.13;;;6.97;;
78181;SDS011;67441;50.116;8.696;2023-06-26T02:08:18;7.80;;;7.00;;
78181;SDS011;67441;50.116;8.696;2023-06-26T02:09:08;9.27;;;7.30;;
78181;SDS011;67441;50.116;8.696;2023-06-26T02:09:59;9.13;;;7.90;;
78181;SDS011;67441;50.116;8.696;2023-06-26T02:10:49;8.50;;;7.13;;
78181;SDS011;67441;50.116;8.696;2023-06-26T02:11:40;8.25;;;7.35;;
78181;SDS011;67441;50.116;8.696;2023-06-26T02:12:30;7.80;;;7.00;;
78181;SDS011;67441;50.116;8.696;2023-06-26T02:13:21;8.20;;;7.40;;
78181;SDS011;67441;50.116;8.696;2023-06-26T02:13:46;8.02;;;7.13;;
78181;SDS011;67441;50.116;8.696;2023-06-26T02:14:37;8.52;;;7.50;;
78181;SDS011;67441;50.116;8.696;2023-06-26T02:15:02;10.32;;;7.70;;
78181;SDS011;67441;50.116;8.696;2023-06-26T02:15:29;8.27;;;6.75;;
78181;SDS011;67441;50.116;8.696;2023-06-26T02:16:19;8.40;;;7.57;;
78181;SDS011;67441;50.116;8.696;2023-06-26T02:17:10;9.70;;;7.50;;
78181;SDS011;67441;50.116;8.696;2023-06-26T02:18:00;8.70;;;7.30;;
78181;SDS011;67441;50.116;8.696;2023-06-26T02:18:51;8.35;;;7.35;;
78181;SDS011;67441;50.116;8.696;2023-06-26T02:19:46;8.80;;;7.80;;
78181;SDS011;67441;50.116;8.696;2023-06-26T02:20:14;9.93;;;7.63;;
78181;SDS011;67441;50.116;8.696;2023-06-26T02:20:40;9.57;;;8.13;;
78181;SDS011;67441;50.116;8.696;2023-06-26T02:21:30;9.70;;;7.70;;
78181;SDS011;67441;50.116;8.696;2023-06-26T02:22:24;10.15;;;7.45;;
78181;SDS011;67441;50.116;8.696;2023-06-26T02:23:14;10.10;;;7.88;;
78181;SDS011;67441;50.116;8.696;2023-06-26T02:23:40;10.52;;;7.57;;
78181;SDS011;67441;50.116;8.696;2023-06-26T02:24:30;8.18;;;7.07;;
78181;SDS011;67441;50.116;8.696;2023-06-26T02:24:57;8.55;;;7.20;;
78181;SDS011;67441;50.116;8.696;2023-06-26T02:25:47;9.57;;;8.10;;
78181;SDS011;67441;50.116;8.696;2023-06-26T02:26:13;9.43;;;7.13;;
78181;SDS011;67441;50.116;8.696;2023-06-26T02:27:04;9.50;;;8.10;;
78181;SDS011;67441;50.116;8.696;2023-06-26T02:27:54;8.02;;;7.22;;
78181;SDS011;67441;50.116;8.696;2023-06-26T02:28:20;8.65;;;7.45;;
78181;SDS011;67441;50.116;8.696;2023-06-26T02:28:45;11.93;;;7.47;;
78181;SDS011;67441;50.116;8.696;2023-06-26T02:29:35;9.77;;;6.88;;
78181;SDS011;67441;50.116;8.696;2023-06-26T02:30:26;9.00;;;7.88;;
78181;SDS011;67441;50.116;8.696;2023-06-26T02:31:16;8.75;;;7.03;;
78181;SDS011;67441;50.116;8.696;2023-06-26T02:32:07;8.48;;;7.55;;
78181;SDS011;67441;50.116;8.696;2023-06-26T02:32:33;10.15;;;7.28;;
78181;SDS011;67441;50.116;8.696;2023-06-26T02:33:24;10.00;;;7.88;;
78181;SDS011;67441;50.116;8.696;2023-06-26T02:34:14;8.20;;;7.28;;
78181;SDS011;67441;50.116;8.696;2023-06-26T02:35:05;8.98;;;7.55;;
78181;SDS011;67441;50.116;8.696;2023-06-26T02:35:57;8.77;;;7.45;;
78181;SDS011;67441;50.116;8.696;2023-06-26T02:36:48;8.75;;;7.32;;
78181;SDS011;67441;50.116;8.696;2023-06-26T02:37:41;9.75;;;8.02;;
78181;SDS011;67441;50.116;8.696;2023-06-26T02:38:31;9.27;;;7.68;;
78181;SDS011;67441;50.116;8.696;2023-06-26T02:39:22;9.07;;;7.70;;
78181;SDS011;67441;50.116;8.696;2023-06-26T02:40:12;9.32;;;7.60;;
78181;SDS011;67441;50.116;8.696;2023-06-26T02:41:03;8.95;;;7.35;;
78181;SDS011;67441;50.116;8.696;2023-06-26T02:41:28;7.88;;;6.82;;
78181;SDS011;67441;50.116;8.696;2023-06-26T02:42:19;7.82;;;7.03;;
78181;SDS011;67441;50.116;8.696;2023-06-26T02:43:09;8.55;;;7.75;;
78181;SDS011;67441;50.116;8.696;2023-06-26T02:44:00;8.98;;;8.07;;
78181;SDS011;67441;50.116;8.696;2023-06-26T02:44:50;10.43;;;7.82;;
78181;SDS011;67441;50.116;8.696;2023-06-26T02:45:16;8.45;;;7.55;;
78181;SDS011;67441;50.116;8.696;2023-06-26T02:46:07;7.65;;;6.85;;
78181;SDS011;67441;50.116;8.696;2023-06-26T02:46:32;8.10;;;7.30;;
78181;SDS011;67441;50.116;8.696;2023-06-26T02:47:23;7.75;;;6.95;;
78181;SDS011;67441;50.116;8.696;2023-06-26T02:48:14;9.25;;;7.80;;
78181;SDS011;67441;50.116;8.696;2023-06-26T02:49:05;8.23;;;6.93;;
78181;SDS011;67441;50.116;8.696;2023-06-26T02:49:55;8.60;;;6.95;;
78181;SDS011;67441;50.116;8.696;2023-06-26T02:50:46;7.55;;;6.75;;
78181;SDS011;67441;50.116;8.696;2023-06-26T02:51:37;8.90;;;6.90;;
78181;SDS011;67441;50.116;8.696;2023-06-26T02:52:02;9.57;;;7.47;;
78181;SDS011;67441;50.116;8.696;2023-06-26T02:52:54;8.77;;;6.78;;
78181;SDS011;67441;50.116;8.696;2023-06-26T02:53:19;9.63;;;7.20;;
78181;SDS011;67441;50.116;8.696;2023-06-26T02:54:10;9.23;;;7.20;;
78181;SDS011;67441;50.116;8.696;2023-06-26T02:55:00;10.63;;;7.40;;
78181;SDS011;67441;50.116;8.696;2023-06-26T02:55:51;8.57;;;7.40;;
78181;SDS011;67441;50.116;8.696;2023-06-26T02:56:41;8.23;;;7.22;;
78181;SDS011;67441;50.116;8.696;2023-06-26T02:57:07;8.25;;;6.75;;
78181;SDS011;67441;50.116;8.696;2023-06-26T02:57:58;10.02;;;7.90;;
78181;SDS011;67441;50.116;8.696;2023-06-26T02:58:48;8.73;;;7.30;;
78181;SDS011;67441;50.116;8.696;2023-06-26T02:59:14;8.20;;;7.20;;
78181;SDS011;67441;50.116;8.696;2023-06-26T03:00:05;8.55;;;7.18;;
78181;SDS011;67441;50.116;8.696;2023-06-26T03:00:33;8.68;;;7.78;;
78181;SDS011;67441;50.116;8.696;2023-06-26T03:01:23;8.68;;;7.78;;
78181;SDS011;67441;50.116;8.696;2023-06-26T03:02:14;8.27;;;7.18;;
78181;SDS011;67441;50.116;8.696;2023-06-26T03:03:05;10.23;;;7.55;;
78181;SDS011;67441;50.116;8.696;2023-06-26T03:03:55;7.90;;;6.78;;
78181;SDS011;67441;50.116;8.696;2023-06-26T03:04:46;15.25;;;7.78;;
78181;SDS011;67441;50.116;8.696;2023-06-26T03:05:38;10.18;;;7.50;;
78181;SDS011;67441;50.116;8.696;2023-06-26T03:06:28;8.88;;;7.38;;
78181;SDS011;67441;50.116;8.696;2023-06-26T03:07:19;8.60;;;7.65;;
78181;SDS011;67441;50.116;8.696;2023-06-26T03:08:09;9.23;;;7.00;;
78181;SDS011;67441;50.116;8.696;2023-06-26T03:09:01;8.18;;;6.95;;
78181;SDS011;67441;50.116;8.696;2023-06-26T03:09:53;8.60;;;7.25;;
78181;SDS011;67441;50.116;8.696;2023-06-26T03:10:43;7.78;;;6.53;;
78181;SDS011;67441;50.116;8.696;2023-06-26T03:11:34;8.20;;;7.00;;
78181;SDS011;67441;50.116;8.696;2023-06-26T03:12:25;8.57;;;7.45;;
78181;SDS011;67441;50.116;8.696;2023-06-26T03:13:15;8.88;;;7.07;;
78181;SDS011;67441;50.116;8.696;2023-06-26T03:14:06;10.32;;;7.60;;
78181;SDS011;67441;50.116;8.696;2023-06-26T03:14:57;8.00;;;7.20;;
78181;SDS011;67441;50.116;8.696;2023-06-26T03:15:47;9.57;;;7.85;;
78181;SDS011;67441;50.116;8.696;2023-06-26T03:16:38;9.02;;;7.63;;
78181;SDS011;67441;50.116;8.696;2023-06-26T03:17:04;8.65;;;7.65;;
78181;SDS011;67441;50.116;8.696;2023-06-26T03:17:31;8.25;;;7.40;;
78181;SDS011;67441;50.116;8.696;2023-06-26T03:18:21;10.88;;;7.75;;
78181;SDS011;67441;50.116;8.696;2023-06-26T03:19:11;10.25;;;7.03;;
78181;SDS011;67441;50.116;8.696;2023-06-26T03:20:02;9.05;;;7.63;;
78181;SDS011;67441;50.116;8.696;2023-06-26T03:20:53;8.45;;;7.25;;
78181;SDS011;67441;50.116;8.696;2023-06-26T03:21:20;9.15;;;7.15;;
78181;SDS011;67441;50.116;8.696;2023-06-26T03:22:10;9.32;;;7.15;;
78181;SDS011;67441;50.116;8.696;2023-06-26T03:22:36;9.90;;;8.05;;
78181;SDS011;67441;50.116;8.696;2023-06-26T03:23:26;8.18;;;6.65;;
78181;SDS011;67441;50.116;8.696;2023-06-26T03:24:17;8.13;;;7.20;;
78181;SDS011;67441;50.116;8.696;2023-06-26T03:25:08;8.85;;;7.97;;
78181;SDS011;67441;50.116;8.696;2023-06-26T03:25:59;8.40;;;7.18;;
78181;SDS011;67441;50.116;8.696;2023-06-26T03:26:52;9.15;;;7.63;;
78181;SDS011;67441;50.116;8.696;2023-06-26T03:27:42;10.05;;;6.65;;
78181;SDS011;67441;50.116;8.696;2023-06-26T03:28:33;8.18;;;7.10;;
78181;SDS011;67441;50.116;8.696;2023-06-26T03:29:23;9.30;;;7.22;;
78181;SDS011;67441;50.116;8.696;2023-06-26T03:30:14;8.70;;;7.13;;
78181;SDS011;67441;50.116;8.696;2023-06-26T03:30:40;8.73;;;7.82;;
78181;SDS011;67441;50.116;8.696;2023-06-26T03:31:31;8.32;;;7.47;;
78181;SDS011;67441;50.116;8.696;2023-06-26T03:32:21;9.02;;;8.07;;
78181;SDS011;67441;50.116;8.696;2023-06-26T03:33:12;10.18;;;7.72;;
78181;SDS011;67441;50.116;8.696;2023-06-26T03:34:02;8.98;;;8.07;;
78181;SDS011;67441;50.116;8.696;2023-06-26T03:34:53;9.30;;;7.35;;
78181;SDS011;67441;50.116;8.696;2023-06-26T03:35:43;8.50;;;7.40;;
78181;SDS011;67441;50.116;8.696;2023-06-26T03:36:34;9.10;;;7.75;;
78181;SDS011;67441;50.116;8.696;2023-06-26T03:37:00;8.60;;;7.25;;
78181;SDS011;67441;50.116;8.696;2023-06-26T03:37:27;8.40;;;7.50;;
78181;SDS011;67441;50.116;8.696;2023-06-26T03:38:17;9.65;;;8.23;;
78181;SDS011;67441;50.116;8.696;2023-06-26T03:39:08;8.57;;;7.65;;
78181;SDS011;67441;50.116;8.696;2023-06-26T03:39:58;9.20;;;7.45;;
78181;SDS011;67441;50.116;8.696;2023-06-26T03:40:49;9.80;;;7.78;;
78181;SDS011;67441;50.116;8.696;2023-06-26T03:41:39;10.40;;;8.13;;
78181;SDS011;67441;50.116;8.696;2023-06-26T03:42:30;8.82;;;7.97;;
78181;SDS011;67441;50.116;8.696;2023-06-26T03:42:57;14.25;;;8.13;;
78181;SDS011;67441;50.116;8.696;2023-06-26T03:43:47;9.32;;;7.75;;
78181;SDS011;67441;50.116;8.696;2023-06-26T03:44:37;8.77;;;7.75;;
78181;SDS011;67441;50.116;8.696;2023-06-26T03:45:28;9.52;;;7.28;;
78181;SDS011;67441;50.116;8.696;2023-06-26T03:46:19;11.30;;;8.60;;
78181;SDS011;67441;50.116;8.696;2023-06-26T03:46:44;9.45;;;8.13;;
78181;SDS011;67441;50.116;8.696;2023-06-26T03:47:35;9.80;;;7.90;;
78181;SDS011;67441;50.116;8.696;2023-06-26T03:48:00;10.30;;;8.18;;
78181;SDS011;67441;50.116;8.696;2023-06-26T03:48:50;10.57;;;7.70;;
78181;SDS011;67441;50.116;8.696;2023-06-26T03:49:41;8.55;;;7.22;;
78181;SDS011;67441;50.116;8.696;2023-06-26T03:50:31;10.25;;;7.70;;
78181;SDS011;67441;50.116;8.696;2023-06-26T03:51:23;9.80;;;8.15;;
78181;SDS011;67441;50.116;8.696;2023-06-26T03:52:13;9.52;;;8.18;;
78181;SDS011;67441;50.116;8.696;2023-06-26T03:53:04;8.93;;;8.07;;
78181;SDS011;67441;50.116;8.696;2023-06-26T03:53:54;10.32;;;8.43;;
78181;SDS011;67441;50.116;8.696;2023-06-26T03:54:45;9.13;;;8.10;;
78181;SDS011;67441;50.116;8.696;2023-06-26T03:55:10;8.85;;;7.65;;
78181;SDS011;67441;50.116;8.696;2023-06-26T03:56:01;11.10;;;9.68;;
78181;SDS011;67441;50.116;8.696;2023-06-26T03:56:26;10.93;;;8.63;;
78181;SDS011;67441;50.116;8.696;2023-06-26T03:57:17;9.52;;;8.52;;
78181;SDS011;67441;50.116;8.696;2023-06-26T03:58:07;9.75;;;7.93;;
78181;SDS011;67441;50.116;8.696;2023-06-26T03:58:57;9.45;;;8.43;;
78181;SDS011;67441;50.116;8.696;2023-06-26T03:59:23;10.48;;;8.55;;
78181;SDS011;67441;50.116;8.696;2023-06-26T04:00:14;11.40;;;8.10;;
78181;SDS011;67441;50.116;8.696;2023-06-26T04:01:05;9.07;;;7.65;;
78181;SDS011;67441;50.116;8.696;2023-06-26T04:01:56;8.95;;;8.05;;
78181;SDS011;67441;50.116;8.696;2023-06-26T04:02:47;8.73;;;7.85;;
78181;SDS011;67441;50.116;8.696;2023-06-26T04:03:38;9.50;;;8.35;;
78181;SDS011;67441;50.116;8.696;2023-06-26T04:04:28;10.32;;;8.48;;
78181;SDS011;67441;50.116;8.696;2023-06-26T04:05:21;9.23;;;7.72;;
78181;SDS011;67441;50.116;8.696;2023-06-26T04:06:11;10.05;;;7.90;;
78181;SDS011;67441;50.116;8.696;2023-06-26T04:06:37;9.30;;;8.25;;
78181;SDS011;67441;50.116;8.696;2023-06-26T04:07:28;9.98;;;7.82;;
78181;SDS011;67441;50.116;8.696;2023-06-26T04:08:19;10.05;;;8.50;;
78181;SDS011;67441;50.116;8.696;2023-06-26T04:08:45;9.57;;;7.85;;
78181;SDS011;67441;50.116;8.696;2023-06-26T04:09:36;9.13;;;7.75;;
78181;SDS011;67441;50.116;8.696;2023-06-26T04:10:26;10.27;;;8.20;;
78181;SDS011;67441;50.116;8.696;2023-06-26T04:11:17;9.57;;;8.57;;
78181;SDS011;67441;50.116;8.696;2023-06-26T04:12:07;10.07;;;8.18;;
78181;SDS011;67441;50.116;8.696;2023-06-26T04:12:58;9.40;;;8.05;;
78181;SDS011;67441;50.116;8.696;2023-06-26T04:13:49;9.40;;;8.48;;
78181;SDS011;67441;50.116;8.696;2023-06-26T04:14:40;9.43;;;8.13;;
78181;SDS011;67441;50.116;8.696;2023-06-26T04:15:05;11.73;;;9.15;;
78181;SDS011;67441;50.116;8.696;2023-06-26T04:15:56;9.48;;;8.32;;
78181;SDS011;67441;50.116;8.696;2023-06-26T04:16:21;11.27;;;8.95;;
78181;SDS011;67441;50.116;8.696;2023-06-26T04:16:50;11.05;;;9.00;;